Time;durP1;ratioP1;P1;durP2;ratioP2;P2;SDS_P1;SDS_P2;PMS_P1;PMS_P2;Temp;Humidity;BMP_temperature;BMP_pressure;BME280_temperature;BME280_humidity;BME280_pressure;Samples;Min_cycle;Max_cycle;Signal;HPM_P1;HPM_P2
2024/02/02 00:01:06;;;;;;;18.02;2.88;;;;;;;6.43;100.00;102233.53;4957592;28;20018;-93
2024/02/02 00:03:31;;;;;;;19.92;3.05;;;;;;;6.46;100.00;102229.22;4974843;28;20030;-92
2024/02/02 00:05:57;;;;;;;11.57;2.58;;;;;;;6.56;100.00;102228.25;4974965;28;20023;-93
2024/02/02 00:08:22;;;;;;;18.23;2.97;;;;;;;6.54;100.00;102224.88;4974887;28;20110;-93
2024/02/02 00:10:48;;;;;;;15.50;2.95;;;;;;;6.52;100.00;102217.19;4974607;28;20505;-92
2024/02/02 00:13:13;;;;;;;17.55;3.45;;;;;;;6.51;100.00;102219.75;4974645;28;20063;-93
2024/02/02 00:15:39;;;;;;;14.82;3.28;;;;;;;6.49;100.00;102217.25;4956683;28;20492;-93
2024/02/02 00:18:04;;;;;;;15.77;3.28;;;;;;;6.48;100.00;102206.97;4974515;28;20267;-93
2024/02/02 00:20:29;;;;;;;19.95;3.58;;;;;;;6.54;100.00;102201.78;4974646;28;20478;-94
2024/02/02 00:22:55;;;;;;;17.35;3.83;;;;;;;6.53;100.00;102198.34;4974447;28;20577;-93
2024/02/02 00:25:20;;;;;;;16.17;2.72;;;;;;;6.53;100.00;102208.63;4974441;28;20429;-93
2024/02/02 00:27:45;;;;;;;20.15;3.03;;;;;;;6.54;100.00;102209.50;4974414;28;20026;-93
2024/02/02 00:30:11;;;;;;;17.70;2.97;;;;;;;6.51;100.00;102201.81;4974066;28;20397;-93
2024/02/02 00:32:39;;;;;;;19.42;3.25;;;;;;;6.50;100.00;102207.81;4956966;28;20031;-93
2024/02/02 00:35:05;;;;;;;16.13;3.30;;;;;;;6.52;100.00;102208.66;4974339;28;20034;-94
2024/02/02 00:37:30;;;;;;;8.57;3.00;;;;;;;6.51;100.00;102204.38;4974291;28;20434;-93
2024/02/02 00:39:56;;;;;;;23.65;4.20;;;;;;;6.47;100.00;102192.47;4973940;28;20027;-94
2024/02/02 00:42:21;;;;;;;18.17;3.20;;;;;;;6.53;100.00;102202.66;4974156;28;20110;-94
2024/02/02 00:44:46;;;;;;;15.18;2.67;;;;;;;6.60;100.00;102192.28;4974018;28;20385;-93
2024/02/02 00:47:12;;;;;;;17.33;3.65;;;;;;;6.50;100.00;102190.72;4973945;28;20030;-93
2024/02/02 00:49:38;;;;;;;22.27;4.13;;;;;;;6.17;100.00;102194.53;4974185;28;20078;-93
2024/02/02 00:52:04;;;;;;;27.83;3.92;;;;;;;6.23;100.00;102204.69;4974099;28;20030;-93
2024/02/02 00:54:29;;;;;;;22.15;4.05;;;;;;;6.17;100.00;102199.66;4974098;28;20473;-93
2024/02/02 00:56:55;;;;;;;20.30;4.28;;;;;;;6.20;100.00;102195.34;4973973;28;20027;-93
2024/02/02 00:59:20;;;;;;;18.30;4.35;;;;;;;6.18;100.00;102196.22;4973912;28;20030;-93
2024/02/02 01:01:45;;;;;;;25.60;4.28;;;;;;;6.17;100.00;102199.66;4973865;28;20117;-93
2024/02/02 01:04:11;;;;;;;16.45;3.90;;;;;;;6.16;100.00;102197.94;4973873;28;20084;-93
2024/02/02 01:06:37;;;;;;;18.50;3.40;;;;;;;6.17;100.00;102200.50;4956281;28;20458;-93
2024/02/02 01:09:03;;;;;;;11.75;3.50;;;;;;;6.24;100.00;102201.25;4973992;28;20085;-94
2024/02/02 01:11:29;;;;;;;19.77;4.07;;;;;;;6.30;100.00;102193.50;4973451;28;20031;-94
2024/02/02 01:13:54;;;;;;;23.08;3.83;;;;;;;6.26;100.00;102198.69;4973758;28;20113;-94
2024/02/02 01:16:20;;;;;;;13.90;3.63;;;;;;;6.36;100.00;102190.00;4956252;28;20027;-93
2024/02/02 01:18:45;;;;;;;18.33;4.03;;;;;;;6.26;100.00;102179.03;4956197;28;20023;-93
2024/02/02 01:21:11;;;;;;;17.50;4.30;;;;;;;6.28;100.00;102179.00;4973579;28;20042;-93
2024/02/02 01:23:37;;;;;;;18.80;3.50;;;;;;;6.28;100.00;102177.28;4973387;28;20030;-93
2024/02/02 01:26:04;;;;;;;28.45;7.78;;;;;;;6.32;100.00;102173.84;4973440;28;20165;-93
2024/02/02 01:28:29;;;;;;;20.77;4.18;;;;;;;6.33;100.00;102167.81;4956168;28;20026;-93
2024/02/02 01:30:54;;;;;;;12.85;4.30;;;;;;;6.34;100.00;102177.22;4973329;28;20031;-93
2024/02/02 01:33:20;;;;;;;23.45;3.83;;;;;;;6.29;100.00;102173.88;4956054;28;20085;-93
2024/02/02 01:35:45;;;;;;;16.88;3.65;;;;;;;6.30;100.00;102165.31;4973021;28;20026;-94
2024/02/02 01:38:10;;;;;;;13.32;3.35;;;;;;;6.37;100.00;102166.94;4973375;28;20438;-93
2024/02/02 01:40:36;;;;;;;27.10;3.75;;;;;;;6.38;100.00;102160.06;4973306;28;20026;-93
2024/02/02 01:43:03;;;;;;;20.20;4.47;;;;;;;6.53;100.00;102156.47;4956075;28;20031;-93
2024/02/02 01:45:29;;;;;;;17.67;4.38;;;;;;;6.49;100.00;102159.97;4955938;28;20023;-93
2024/02/02 01:47:54;;;;;;;19.20;4.30;;;;;;;6.32;100.00;102163.56;4973210;28;20111;-94
2024/02/02 01:50:19;;;;;;;20.30;4.63;;;;;;;6.38;100.00;102168.63;4955924;28;20132;-95
2024/02/02 01:52:45;;;;;;;20.83;4.53;;;;;;;6.39;100.00;102165.19;4973361;28;20026;-93
2024/02/02 01:55:11;;;;;;;19.92;4.22;;;;;;;6.35;100.00;102163.53;4973007;28;20019;-94
2024/02/02 01:57:37;;;;;;;14.60;3.25;;;;;;;6.46;100.00;102154.84;4955736;28;20023;-93
2024/02/02 02:00:04;;;;;;;13.23;3.53;;;;;;;6.47;100.00;102152.28;4972756;28;20409;-94
2024/02/02 02:02:29;;;;;;;20.23;4.18;;;;;;;6.43;100.00;102151.44;4955684;28;20038;-94
2024/02/02 02:04:55;;;;;;;17.15;4.25;;;;;;;6.50;100.00;102152.22;4954875;28;20031;-93
2024/02/02 02:07:20;;;;;;;18.15;4.07;;;;;;;6.49;100.00;102149.69;4954847;28;20031;-92
2024/02/02 02:09:45;;;;;;;15.48;4.68;;;;;;;6.48;100.00;102148.84;4972890;28;20034;-93
2024/02/02 02:12:11;;;;;;;16.27;4.68;;;;;;;6.49;100.00;102139.44;4955699;28;20147;-94
2024/02/02 02:14:37;;;;;;;13.55;4.50;;;;;;;6.57;100.00;102137.63;4955901;28;20393;-94
2024/02/02 02:17:02;;;;;;;20.15;5.38;;;;;;;6.57;100.00;102142.75;4972836;28;20027;-95
2024/02/02 02:19:28;;;;;;;18.70;4.18;;;;;;;6.54;100.00;102133.38;4973026;28;20030;-93
2024/02/02 02:21:53;;;;;;;19.05;5.15;;;;;;;6.43;100.00;102137.78;4973107;28;20535;-94
2024/02/02 02:24:19;;;;;;;15.13;5.88;;;;;;;6.43;100.00;102136.06;4972945;28;20109;-94
2024/02/02 02:26:44;;;;;;;21.98;4.80;;;;;;;6.47;100.00;102138.63;4972814;28;20031;-93
2024/02/02 02:29:10;;;;;;;14.05;4.90;;;;;;;6.40;100.00;102138.66;4973012;28;20121;-95
2024/02/02 02:31:35;;;;;;;27.10;6.43;;;;;;;6.45;100.00;102143.75;4955693;28;20033;-93
2024/02/02 02:34:01;;;;;;;20.27;5.63;;;;;;;6.36;100.00;102152.38;4972858;28;20065;-94
2024/02/02 02:36:26;;;;;;;15.30;5.75;;;;;;;6.36;100.00;102144.69;4973057;28;20251;-93
2024/02/02 02:38:52;;;;;;;20.17;6.38;;;;;;;6.28;100.00;102154.22;4957471;28;20055;-93
2024/02/02 02:41:17;;;;;;;17.15;5.70;;;;;;;6.31;100.00;102143.91;4959127;28;20070;-93
2024/02/02 02:43:43;;;;;;;27.20;7.22;;;;;;;6.40;100.00;102146.38;4976375;28;20031;-94
2024/02/02 02:46:08;;;;;;;17.05;6.93;;;;;;;6.36;100.00;102143.84;4976523;28;20019;-93
2024/02/02 02:48:36;;;;;;;23.00;7.85;;;;;;;6.41;100.00;102147.22;4959128;28;20367;-93
2024/02/02 02:51:02;;;;;;;20.02;5.70;;;;;;;6.41;100.00;102142.06;4958707;28;20037;-93
2024/02/02 02:53:29;;;;;;;14.23;5.80;;;;;;;6.46;100.00;102144.59;4959163;28;20069;-94
2024/02/02 02:55:54;;;;;;;13.23;5.47;;;;;;;6.48;100.00;102145.44;4958981;28;20401;-94
2024/02/02 02:58:19;;;;;;;17.98;5.25;;;;;;;6.46;100.00;102150.56;4958751;28;20433;-94
2024/02/02 03:00:45;;;;;;;22.30;6.53;;;;;;;6.52;100.00;102153.06;4976190;28;20041;-93
2024/02/02 03:03:10;;;;;;;9.90;4.75;;;;;;;6.58;100.00;102150.44;4959010;28;20428;-94
2024/02/02 03:05:37;;;;;;;10.80;4.90;;;;;;;6.65;100.00;102140.91;4976194;28;20034;-94
2024/02/02 03:08:06;;;;;;;13.63;4.85;;;;;;;6.60;100.00;102140.13;4958999;28;20046;-93
2024/02/02 03:10:32;;;;;;;15.23;5.90;;;;;;;6.65;100.00;102140.91;4976022;28;20023;-93
2024/02/02 03:12:58;;;;;;;12.05;3.88;;;;;;;6.66;100.00;102137.50;4958526;28;20027;-94
2024/02/02 03:15:23;;;;;;;10.00;4.15;;;;;;;6.64;100.00;102134.09;4958593;28;20030;-93
2024/02/02 03:17:49;;;;;;;5.25;3.38;;;;;;;6.64;100.00;102131.53;4975994;28;20033;-93
2024/02/02 03:20:15;;;;;;;5.95;2.92;;;;;;;6.77;100.00;102133.03;4975696;28;20525;-94
2024/02/02 03:22:41;;;;;;;7.38;3.45;;;;;;;6.77;100.00;102127.91;4958759;28;20029;-94
2024/02/02 03:25:07;;;;;;;5.03;2.63;;;;;;;6.90;100.00;102125.16;4975690;28;20102;-94
2024/02/02 03:27:32;;;;;;;5.20;2.65;;;;;;;6.92;100.00;102118.28;4958414;28;20105;-94
2024/02/02 03:29:58;;;;;;;3.97;2.40;;;;;;;6.91;100.00;102122.59;4975614;28;20054;-93
2024/02/02 03:32:24;;;;;;;4.63;2.40;;;;;;;6.96;100.00;102125.09;4975492;28;20039;-93
2024/02/02 03:34:49;;;;;;;5.75;2.78;;;;;;;6.91;100.00;102120.00;4958197;28;20445;-93
2024/02/02 03:37:15;;;;;;;3.72;2.20;;;;;;;6.96;100.00;102104.53;4975520;28;20030;-93
2024/02/02 03:39:41;;;;;;;2.90;2.50;;;;;;;6.96;100.00;102099.41;4958356;28;20030;-93
2024/02/02 03:42:06;;;;;;;3.35;2.20;;;;;;;6.95;100.00;102102.84;4975270;28;20081;-94
2024/02/02 03:44:32;;;;;;;4.15;2.20;;;;;;;6.99;100.00;102109.63;4975326;28;20393;-94
2024/02/02 03:46:57;;;;;;;3.80;2.17;;;;;;;6.96;100.00;102102.81;4957969;28;20023;-93
2024/02/02 03:49:22;;;;;;;9.70;2.22;;;;;;;6.96;100.00;102094.28;4974295;28;20513;-94
2024/02/02 03:51:48;;;;;;;5.20;2.47;;;;;;;6.97;100.00;102095.97;4957545;28;20527;-92
2024/02/02 03:54:13;;;;;;;8.63;3.65;;;;;;;6.93;100.00;102095.19;4975024;28;20092;-93
2024/02/02 03:56:40;;;;;;;3.80;2.40;;;;;;;6.98;100.00;102097.66;4974854;28;20027;-94
2024/02/02 03:59:06;;;;;;;2.50;1.90;;;;;;;6.98;100.00;102093.38;4957621;28;20059;-94
2024/02/02 04:01:31;;;;;;;2.20;1.80;;;;;;;7.12;100.00;102105.13;4975086;28;20054;-94
2024/02/02 04:03:57;;;;;;;2.90;2.13;;;;;;;7.10;100.00;102106.91;4974857;28;20026;-93
2024/02/02 04:06:22;;;;;;;2.75;1.23;;;;;;;7.16;100.00;102097.34;4974678;28;20026;-92
2024/02/02 04:08:47;;;;;;;3.90;1.98;;;;;;;7.18;100.00;102099.91;4974918;28;20050;-93
2024/02/02 04:11:13;;;;;;;2.40;1.65;;;;;;;7.21;100.00;102095.56;4974884;28;20031;-93
2024/02/02 04:13:38;;;;;;;1.80;1.20;;;;;;;7.21;100.00;102089.59;4974696;28;20489;-93
2024/02/02 04:16:04;;;;;;;2.85;1.70;;;;;;;7.26;100.00;102095.47;4974665;28;20109;-92
2024/02/02 04:18:31;;;;;;;3.05;1.55;;;;;;;7.34;100.00;102092.78;4974314;28;20051;-93
2024/02/02 04:20:56;;;;;;;3.47;1.40;;;;;;;7.32;100.00;102094.56;4957537;28;20085;-94
2024/02/02 04:23:24;;;;;;;3.15;1.80;;;;;;;7.34;100.00;102088.50;4974480;28;20097;-93
2024/02/02 04:25:49;;;;;;;3.08;1.60;;;;;;;7.32;100.00;102081.72;4973853;28;20612;-92
2024/02/02 04:28:15;;;;;;;2.80;1.65;;;;;;;7.34;100.00;102085.06;4944131;29;20098;-94
2024/02/02 04:30:40;;;;;;;4.05;2.03;;;;;;;7.31;100.00;102080.00;4954764;29;20030;-93
2024/02/02 04:33:06;;;;;;;3.55;2.15;;;;;;;7.32;100.00;102082.56;4956221;28;20398;-92
2024/02/02 04:35:34;;;;;;;5.13;2.25;;;;;;;7.27;100.00;102072.34;4974080;28;20109;-93
2024/02/02 04:38:01;;;;;;;3.13;1.77;;;;;;;7.36;100.00;102070.50;4956765;28;20413;-93
2024/02/02 04:40:26;;;;;;;2.00;1.70;;;;;;;7.45;100.00;102073.75;4974207;28;20035;-93
2024/02/02 04:42:51;;;;;;;1.83;1.33;;;;;;;7.51;100.00;102077.94;4956591;28;20089;-94
2024/02/02 04:45:17;;;;;;;2.95;1.75;;;;;;;7.59;100.00;102070.94;4937866;28;20023;-93
2024/02/02 04:47:42;;;;;;;2.85;1.35;;;;;;;7.59;100.00;102075.22;4954737;29;20410;-94
2024/02/02 04:50:08;;;;;;;1.45;1.20;;;;;;;7.59;100.00;102065.78;4953860;29;20031;-93
2024/02/02 04:52:33;;;;;;;3.90;1.35;;;;;;;7.57;100.00;102067.53;4954592;29;20490;-92
2024/02/02 04:54:59;;;;;;;1.67;1.13;;;;;;;7.62;100.00;102055.44;4954443;29;20027;-93
2024/02/02 04:57:24;;;;;;;3.15;1.50;;;;;;;7.68;100.00;102055.34;4954369;28;20035;-92
2024/02/02 04:59:49;;;;;;;3.75;1.90;;;;;;;7.67;100.00;102063.06;4954617;29;20394;-93
2024/02/02 05:02:15;;;;;;;3.28;1.67;;;;;;;7.61;100.00;102061.47;4954541;28;20027;-92
2024/02/02 05:04:40;;;;;;;2.42;1.70;;;;;;;7.59;100.00;102064.94;4954617;29;20020;-93
2024/02/02 05:07:06;;;;;;;1.75;1.50;;;;;;;7.66;100.00;102075.06;4954429;28;20023;-94
2024/02/02 05:09:31;;;;;;;2.33;1.33;;;;;;;7.64;100.00;102070.84;4954436;29;20028;-94
2024/02/02 05:11:57;;;;;;;1.90;1.60;;;;;;;7.64;100.00;102065.69;4954261;29;20027;-93
2024/02/02 05:14:22;;;;;;;3.03;1.40;;;;;;;7.70;100.00;102068.13;4937349;29;20309;-93
2024/02/02 05:16:47;;;;;;;2.80;1.23;;;;;;;7.71;100.00;102070.69;4954461;28;20027;-93
2024/02/02 05:19:13;;;;;;;1.98;1.70;;;;;;;7.75;100.00;102070.63;4954195;29;20034;-93
2024/02/02 05:21:38;;;;;;;3.15;1.45;;;;;;;7.73;100.00;102073.25;4954324;29;20031;-93
2024/02/02 05:24:04;;;;;;;1.77;1.33;;;;;;;7.69;100.00;102069.88;4936953;29;20474;-93
2024/02/02 05:26:29;;;;;;;2.35;1.60;;;;;;;7.72;100.00;102069.81;4954073;28;20019;-94
2024/02/02 05:28:55;;;;;;;2.63;1.50;;;;;;;7.67;100.00;102061.34;4954111;29;20078;-93
2024/02/02 05:31:20;;;;;;;3.00;1.50;;;;;;;7.67;100.00;102068.22;4954184;29;20074;-93
2024/02/02 05:33:46;;;;;;;1.92;1.30;;;;;;;7.69;100.00;102066.47;4953981;29;20402;-93
2024/02/02 05:36:11;;;;;;;2.42;1.20;;;;;;;7.67;100.00;102069.03;4954020;28;20027;-94
2024/02/02 05:38:38;;;;;;;3.22;1.65;;;;;;;7.69;100.00;102062.16;4954024;29;20458;-93
2024/02/02 05:41:04;;;;;;;1.40;1.10;;;;;;;7.76;100.00;102064.63;4953892;29;20453;-93
2024/02/02 05:43:29;;;;;;;2.45;1.20;;;;;;;7.85;100.00;102078.16;4954093;29;20024;-95
2024/02/02 05:45:55;;;;;;;0.90;0.90;;;;;;;7.92;100.00;102073.69;4936658;29;20043;-94
2024/02/02 05:48:20;;;;;;;2.55;1.17;;;;;;;7.89;100.00;102069.47;4954079;29;20474;-92
2024/02/02 05:50:47;;;;;;;3.00;1.20;;;;;;;7.90;100.00;102075.44;4953821;29;20082;-93
2024/02/02 05:53:13;;;;;;;1.80;1.15;;;;;;;7.83;100.00;102071.34;4936526;29;20027;-93
2024/02/02 05:55:38;;;;;;;2.80;1.35;;;;;;;7.84;100.00;102070.44;4953856;28;20093;-93
2024/02/02 05:58:03;;;;;;;1.58;1.20;;;;;;;7.91;100.00;102069.44;4953704;29;20066;-93
2024/02/02 06:00:29;;;;;;;1.75;0.82;;;;;;;7.77;100.00;102063.72;4953930;29;20434;-93
2024/02/02 06:02:54;;;;;;;3.08;1.65;;;;;;;7.75;100.00;102058.59;4953831;29;20038;-93
2024/02/02 06:05:20;;;;;;;2.67;1.50;;;;;;;7.86;100.00;102053.28;4936556;28;20030;-93
2024/02/02 06:07:46;;;;;;;3.10;1.30;;;;;;;7.84;100.00;102052.44;4936450;29;20123;-94
2024/02/02 06:10:11;;;;;;;1.75;1.20;;;;;;;7.85;100.00;102049.88;4953690;29;20028;-94
2024/02/02 06:12:36;;;;;;;2.65;1.40;;;;;;;7.89;100.00;102050.63;4953672;28;20154;-93
2024/02/02 06:15:04;;;;;;;1.70;1.20;;;;;;;7.94;100.00;102056.53;4940497;29;20023;-92
2024/02/02 06:17:29;;;;;;;1.23;1.10;;;;;;;7.84;100.00;102044.75;4957321;28;20414;-93
2024/02/02 06:19:55;;;;;;;2.28;1.48;;;;;;;7.93;100.00;102052.28;4957687;29;20023;-94
2024/02/02 06:22:21;;;;;;;4.40;1.83;;;;;;;7.77;100.00;102054.28;4957550;29;20051;-93
2024/02/02 06:24:47;;;;;;;1.55;1.10;;;;;;;7.90;100.00;102057.47;4957280;29;20516;-93
2024/02/02 06:27:12;;;;;;;1.85;1.13;;;;;;;7.91;100.00;102059.16;4957471;28;20035;-94
2024/02/02 06:29:38;;;;;;;2.83;1.33;;;;;;;7.91;100.00;102061.75;4957455;29;20106;-93
2024/02/02 06:32:03;;;;;;;1.42;1.20;;;;;;;7.85;100.00;102056.69;4957214;29;20465;-94
2024/02/02 06:34:29;;;;;;;3.40;1.80;;;;;;;7.91;100.00;102061.75;4957095;29;20032;-94
2024/02/02 06:36:54;;;;;;;2.92;1.50;;;;;;;7.91;100.00;102056.59;4957004;28;20054;-94
2024/02/02 06:39:19;;;;;;;3.35;1.27;;;;;;;7.98;100.00;102058.16;4940009;29;20023;-93
2024/02/02 06:41:45;;;;;;;1.70;1.08;;;;;;;7.91;100.00;102051.44;4939966;29;20397;-94
2024/02/02 06:44:10;;;;;;;4.20;1.38;;;;;;;7.94;100.00;102061.66;4957044;29;20031;-93
2024/02/02 06:46:36;;;;;;;2.03;1.30;;;;;;;7.91;100.00;102059.16;4939686;29;20031;-93
2024/02/02 06:49:01;;;;;;;2.03;1.80;;;;;;;7.98;100.00;102058.16;4939827;29;20389;-93
2024/02/02 06:51:26;;;;;;;1.90;1.10;;;;;;;7.94;100.00;102062.50;4957397;29;20035;-93
2024/02/02 06:53:52;;;;;;;2.75;1.60;;;;;;;8.01;100.00;102063.25;4940010;29;20027;-93
2024/02/02 06:56:34;;;;;;;2.50;1.42;;;;;;;8.03;100.00;102056.34;4956963;28;20482;-94
2024/02/02 06:59:00;;;;;;;3.85;1.70;;;;;;;7.99;100.00;102057.28;4956676;29;20089;-94
2024/02/02 07:01:26;;;;;;;3.13;1.85;;;;;;;7.90;100.00;102057.47;4957059;29;20470;-93
2024/02/02 07:03:51;;;;;;;2.47;1.85;;;;;;;7.90;100.00;102053.19;4956962;29;20474;-93
2024/02/02 07:06:17;;;;;;;2.95;1.80;;;;;;;7.99;100.00;102059.00;4956562;28;20039;-94
2024/02/02 07:08:42;;;;;;;2.00;1.80;;;;;;;7.96;100.00;102059.91;4939456;29;20023;-94
2024/02/02 07:11:10;;;;;;;3.53;2.30;;;;;;;8.04;100.00;102055.44;4956590;29;20023;-95
2024/02/02 07:13:51;;;;;;;3.17;2.33;;;;;;;8.00;100.00;102053.84;4956702;29;20146;-93
2024/02/02 07:16:30;;;;;;;1.90;1.70;;;;;;;8.02;100.00;102054.66;4939358;29;20055;-93
2024/02/02 07:18:56;;;;;;;4.43;2.20;;;;;;;7.94;100.00;102053.94;4956462;29;20031;-94
2024/02/02 07:21:30;;;;;;;2.30;2.05;;;;;;;8.07;100.00;102051.97;4939233;29;20023;-93
2024/02/02 07:23:57;;;;;;;2.17;1.98;;;;;;;8.06;100.00;102056.28;4956433;28;20038;-93
2024/02/02 07:26:36;;;;;;;3.25;2.15;;;;;;;8.21;100.00;102060.25;4956629;28;20054;-94
2024/02/02 07:29:05;;;;;;;2.65;1.75;;;;;;;8.20;100.00;102057.72;4939074;29;20027;-93
2024/02/02 07:31:38;;;;;;;2.33;2.00;;;;;;;8.19;100.00;102056.00;4956234;29;20066;-94
2024/02/02 07:34:41;;;;;;;2.38;1.60;;;;;;;8.17;100.00;102063.78;4956299;29;20031;-93
2024/02/02 07:37:22;;;;;;;2.45;1.73;;;;;;;8.15;100.00;102058.66;4956153;28;20023;-93
2024/02/02 07:39:48;;;;;;;3.92;1.77;;;;;;;8.27;100.00;102060.13;4938906;29;20042;-93
2024/02/02 07:42:13;;;;;;;1.60;1.50;;;;;;;8.22;100.00;102063.66;4938720;29;20474;-94
2024/02/02 07:44:38;;;;;;;2.25;1.70;;;;;;;8.22;100.00;102061.94;4938835;29;20047;-94
2024/02/02 07:47:04;;;;;;;2.08;1.88;;;;;;;8.25;100.00;102061.88;4955787;28;20027;-94
2024/02/02 07:49:29;;;;;;;3.65;1.80;;;;;;;8.27;100.00;102064.44;4955983;29;20102;-94
2024/02/02 07:51:54;;;;;;;1.70;1.50;;;;;;;8.29;100.00;102062.63;4954479;29;20478;-94
2024/02/02 07:54:20;;;;;;;1.52;1.20;;;;;;;8.28;100.00;102046.38;4948480;28;20077;-93
2024/02/02 07:56:45;;;;;;;2.65;1.25;;;;;;;8.38;100.00;102059.88;4974742;28;20019;-91
2024/02/02 07:59:11;;;;;;;2.08;1.40;;;;;;;8.39;100.00;102055.56;4974652;28;20030;-90
2024/02/02 08:01:36;;;;;;;15.10;1.45;;;;;;;8.40;100.00;102055.56;4974531;28;20023;-93
2024/02/02 08:04:02;;;;;;;3.35;0.95;;;;;;;8.44;100.00;102064.94;4974976;28;20465;-93
2024/02/02 08:06:27;;;;;;;2.33;1.10;;;;;;;8.47;100.00;102066.59;4974771;28;20023;-96
2024/02/02 08:08:52;;;;;;;2.08;0.98;;;;;;;8.56;100.00;102066.38;4975877;28;20098;-95
2024/02/02 08:11:18;;;;;;;1.25;0.80;;;;;;;8.50;100.00;102067.34;4960069;28;20023;-96
2024/02/02 08:13:43;;;;;;;0.88;0.75;;;;;;;8.52;100.00;102063.00;4975105;28;20085;-94
2024/02/02 08:16:09;;;;;;;1.40;0.73;;;;;;;8.59;100.00;102050.03;4957990;28;20409;-94
2024/02/02 08:18:36;;;;;;;1.60;0.93;;;;;;;8.55;100.00;102057.78;4958488;28;20030;-90
2024/02/02 08:21:02;;;;;;;1.42;0.70;;;;;;;8.61;100.00;102063.69;4956730;28;20027;-93
2024/02/02 08:23:27;;;;;;;0.85;0.70;;;;;;;8.68;100.00;102060.09;4974648;28;20050;-92
2024/02/02 08:25:53;;;;;;;1.88;1.08;;;;;;;8.64;100.00;102066.19;4974433;28;20057;-92
2024/02/02 08:28:18;;;;;;;1.00;0.85;;;;;;;8.59;100.00;102074.03;4975018;28;20105;-93
2024/02/02 08:30:44;;;;;;;2.50;0.80;;;;;;;8.70;100.00;102076.34;4974441;28;20033;-94
2024/02/02 08:33:09;;;;;;;1.00;0.80;;;;;;;8.69;100.00;102075.50;4973998;28;20081;-92
2024/02/02 08:35:35;;;;;;;2.65;1.00;;;;;;;8.75;100.00;102079.66;4975038;28;20023;-94
2024/02/02 08:38:02;;;;;;;1.52;0.98;;;;;;;8.72;100.00;102074.59;4958749;28;20578;-94
2024/02/02 08:40:43;;;;;;;4.10;0.90;;;;;;;8.74;100.00;102076.22;4974332;28;20033;-93
2024/02/02 08:43:14;;;;;;;1.58;0.90;;;;;;;8.67;100.00;102081.56;4956627;28;20033;-91
2024/02/02 08:45:57;;;;;;;1.80;0.90;;;;;;;8.75;100.00;102087.38;4956317;28;20023;-92
2024/02/02 08:48:35;;;;;;;1.13;0.98;;;;;;;8.77;100.00;102085.63;4973857;28;20034;-92
2024/02/02 08:51:01;;;;;;;1.38;1.15;;;;;;;8.78;100.00;102088.16;4973378;28;20026;-94
2024/02/02 08:53:27;;;;;;;1.75;0.95;;;;;;;8.70;100.00;102090.06;4974297;28;20497;-92
2024/02/02 08:55:58;;;;;;;1.77;0.88;;;;;;;8.77;100.00;102093.34;4974145;28;20030;-93
2024/02/02 08:58:31;;;;;;;1.45;0.90;;;;;;;8.85;100.00;102088.00;4956646;28;20521;-91
2024/02/02 09:00:57;;;;;;;1.25;0.73;;;;;;;8.76;100.00;102078.78;4956343;28;20432;-92
2024/02/02 09:03:43;;;;;;;1.13;0.82;;;;;;;8.79;100.00;102083.84;4973605;28;20023;-94
2024/02/02 09:06:37;;;;;;;1.48;0.73;;;;;;;8.73;100.00;102078.84;4956304;28;20141;-96
2024/02/02 09:09:06;;;;;;;1.60;0.77;;;;;;;8.75;100.00;102082.22;4957783;28;20027;-95
2024/02/02 09:11:31;;;;;;;2.38;0.90;;;;;;;8.76;100.00;102089.09;4956818;28;20051;-96
2024/02/02 09:14:15;;;;;;;2.25;0.88;;;;;;;8.88;100.00;102080.22;4957241;28;20058;-95
2024/02/02 09:16:47;;;;;;;0.80;0.75;;;;;;;8.75;100.00;102082.22;4956895;28;20050;-94
2024/02/02 09:19:24;;;;;;;0.80;0.63;;;;;;;8.83;100.00;102079.47;4956501;28;20050;-95
2024/02/02 09:21:50;;;;;;;1.80;0.70;;;;;;;8.84;100.00;102073.44;4955615;28;20023;-93
2024/02/02 09:24:28;;;;;;;0.65;0.32;;;;;;;8.90;100.00;102076.72;4974053;28;20022;-96
2024/02/02 09:26:54;;;;;;;0.85;0.43;;;;;;;8.86;100.00;102074.25;4974926;28;20027;-95
2024/02/02 09:29:20;;;;;;;1.02;0.60;;;;;;;8.88;100.00;102083.63;4954210;28;20470;-94
2024/02/02 09:31:46;;;;;;;1.05;0.70;;;;;;;8.85;100.00;102088.88;4973081;28;20098;-94
2024/02/02 09:34:20;;;;;;;0.47;0.45;;;;;;;8.88;100.00;102086.22;4971330;28;20030;-93
2024/02/02 09:36:45;;;;;;;0.57;0.50;;;;;;;8.78;100.00;102088.16;4954088;28;20565;-94
2024/02/02 09:39:26;;;;;;;0.57;0.57;;;;;;;8.88;100.00;102087.97;4973204;28;20114;-93
2024/02/02 09:41:58;;;;;;;1.23;0.82;;;;;;;8.78;100.00;102088.16;4955633;28;20035;-94
2024/02/02 09:44:47;;;;;;;0.82;0.50;;;;;;;8.85;100.00;102088.88;4972990;28;20030;-94
2024/02/02 09:47:24;;;;;;;1.75;0.60;;;;;;;8.79;100.00;102089.00;4940191;28;20031;-92
2024/02/02 09:50:05;;;;;;;0.63;0.47;;;;;;;8.92;100.00;102074.09;4955659;28;20121;-93
2024/02/02 09:52:56;;;;;;;1.98;0.50;;;;;;;9.00;100.00;102088.50;4972650;28;20030;-92
2024/02/02 09:55:53;;;;;;;0.40;0.40;;;;;;;8.89;100.00;102092.22;4972943;28;20572;-94
2024/02/02 09:58:57;;;;;;;0.50;0.50;;;;;;;8.98;100.00;102097.97;4973401;28;20062;-94
2024/02/02 10:01:33;;;;;;;0.70;0.60;;;;;;;9.05;100.00;102090.13;4948591;28;20359;-95
2024/02/02 10:04:36;;;;;;;1.65;0.50;;;;;;;9.00;100.00;102106.53;4955179;28;20023;-93
2024/02/02 10:07:04;;;;;;;0.82;0.30;;;;;;;9.05;100.00;102113.31;4972481;28;20023;-93
2024/02/02 10:10:06;;;;;;;0.65;0.30;;;;;;;9.09;100.00;102110.59;4972944;28;20034;-94
2024/02/02 10:12:54;;;;;;;0.68;0.57;;;;;;;9.16;100.00;102113.88;4954958;28;20548;-94
2024/02/02 10:15:45;;;;;;;1.65;0.50;;;;;;;9.16;100.00;102108.72;4945059;28;20058;-93
2024/02/02 10:18:28;;;;;;;2.40;0.30;;;;;;;9.27;100.00;102111.88;4972730;28;20034;-93
2024/02/02 10:21:10;;;;;;;0.50;0.25;;;;;;;9.18;100.00;102114.69;4954836;28;20027;-93
2024/02/02 10:24:04;;;;;;;0.82;0.40;;;;;;;9.26;100.00;102115.31;4973233;28;20031;-94
2024/02/02 10:26:49;;;;;;;0.85;0.10;;;;;;;9.30;100.00;102111.78;4971789;28;20169;-94
2024/02/02 10:29:41;;;;;;;0.63;0.20;;;;;;;9.27;100.00;102111.88;4955689;28;20037;-94
2024/02/02 10:32:18;;;;;;;0.63;0.30;;;;;;;9.28;100.00;102108.41;4959236;28;20035;-94
2024/02/02 10:34:56;;;;;;;1.42;0.57;;;;;;;9.36;100.00;102105.63;4954761;28;20062;-95
2024/02/02 10:37:34;;;;;;;3.70;0.90;;;;;;;9.48;100.00;102109.63;4954950;28;20121;-92
2024/02/02 10:40:10;;;;;;;1.20;0.32;;;;;;;9.46;100.00;102108.81;4954221;28;20706;-92
2024/02/02 10:42:48;;;;;;;3.38;0.80;;;;;;;9.46;100.00;102112.28;4954728;28;20050;-93
2024/02/02 10:45:28;;;;;;;2.28;0.50;;;;;;;9.56;100.00;102113.72;4971547;28;20030;-93
2024/02/02 10:48:03;;;;;;;1.67;0.25;;;;;;;9.60;100.00;102110.16;4971712;28;20190;-93
2024/02/02 10:50:35;;;;;;;1.80;0.30;;;;;;;9.55;100.00;102108.59;4951984;28;20477;-94
2024/02/02 10:53:09;;;;;;;1.70;0.20;;;;;;;9.63;100.00;102104.06;4941374;29;20046;-94
2024/02/02 10:56:03;;;;;;;1.05;0.20;;;;;;;9.69;100.00;102106.50;4965122;28;20049;-93
2024/02/02 10:58:43;;;;;;;2.75;0.17;;;;;;;9.61;100.00;102098.13;4941047;28;20516;-92
2024/02/02 11:01:17;;;;;;;1.33;0.20;;;;;;;9.70;100.00;102094.44;4963003;28;20402;-91
2024/02/02 11:03:51;;;;;;;0.35;0.30;;;;;;;9.74;100.00;102099.47;4974961;28;20026;-91
2024/02/02 11:06:32;;;;;;;1.00;0.10;;;;;;;9.74;100.00;102094.31;4975254;28;20022;-92
2024/02/02 11:09:11;;;;;;;0.75;0.20;;;;;;;9.80;100.00;102094.16;4960334;28;20027;-95
2024/02/02 11:11:43;;;;;;;2.40;0.40;;;;;;;9.77;100.00;102086.50;4955384;29;20035;-92
2024/02/02 11:14:15;;;;;;;;;;;;;;;9.68;100.00;102084.19;4957650;29;20027;-94
2024/02/02 11:16:57;;;;;;;4.25;0.43;;;;;;;9.65;100.00;102077.34;4940698;29;20012;-95
2024/02/02 11:19:42;;;;;;;2.60;0.50;;;;;;;9.73;100.00;102078.88;4962600;28;20034;-96
2024/02/02 11:22:26;;;;;;;1.85;0.50;;;;;;;9.84;100.00;102071.69;4968993;28;20062;-96
2024/02/02 11:25:29;;;;;;;0.75;0.40;;;;;;;9.89;100.00;102079.31;4977381;28;20106;-96
2024/02/02 11:28:06;;;;;;;2.40;0.40;;;;;;;9.89;100.00;102074.16;4961714;28;20027;-96
2024/02/02 11:30:41;;;;;;;0.10;0.10;;;;;;;9.94;100.00;102062.81;4963342;28;20553;-96
2024/02/02 11:33:13;;;;;;;0.30;0.20;;;;;;;9.89;100.00;102074.16;4915402;28;1251565;-96